createdAt,value
2022-11-09T00:01:32.738Z,9.82
2022-11-09T00:04:06.561Z,9.80
2022-11-09T00:06:39.315Z,9.81
2022-11-09T00:09:12.082Z,9.81
2022-11-09T00:11:44.454Z,9.81
2022-11-09T00:14:19.045Z,9.82
2022-11-09T00:16:51.568Z,9.80
2022-11-09T00:19:24.148Z,9.77
2022-11-09T00:21:56.519Z,9.75
2022-11-09T00:24:28.913Z,9.73
2022-11-09T00:27:01.301Z,9.71
2022-11-09T00:29:34.490Z,9.70
2022-11-09T00:32:07.445Z,9.69
2022-11-09T00:34:39.845Z,9.67
2022-11-09T00:37:12.336Z,9.64
2022-11-09T00:39:45.686Z,9.64
2022-11-09T00:42:18.086Z,9.61
2022-11-09T00:44:50.667Z,9.60
2022-11-09T00:47:23.365Z,9.60
2022-11-09T00:49:56.006Z,9.55
2022-11-09T00:52:54.546Z,9.53
2022-11-09T00:56:16.187Z,9.51
2022-11-09T00:58:48.868Z,9.49
2022-11-09T01:01:21.518Z,9.46
2022-11-09T01:03:55.093Z,9.44
2022-11-09T01:06:34.620Z,9.43
2022-11-09T01:09:08.257Z,9.43
2022-11-09T01:12:02.437Z,9.42
2022-11-09T01:14:35.667Z,9.41
2022-11-09T01:17:08.788Z,9.41
2022-11-09T01:23:02.167Z,9.41
2022-11-09T01:25:36.252Z,9.37
2022-11-09T01:28:15.473Z,9.36
2022-11-09T01:30:47.958Z,9.35
2022-11-09T01:33:27.084Z,9.33
2022-11-09T02:21:07.217Z,9.17
2022-11-09T02:24:22.581Z,9.19
2022-11-09T02:27:06.844Z,9.21
2022-11-09T02:30:28.348Z,9.23
2022-11-09T02:33:06.997Z,9.26
2022-11-09T02:49:27.434Z,9.28
2022-11-09T02:52:06.141Z,9.24
2022-11-09T02:54:39.497Z,9.21
2022-11-09T02:57:45.967Z,9.17
2022-11-09T03:05:11.821Z,9.11
2022-11-09T03:08:18.221Z,9.10
2022-11-09T03:10:51.289Z,9.09
2022-11-09T03:13:24.368Z,9.09
2022-11-09T03:16:38.828Z,9.08
2022-11-09T03:19:18.082Z,9.05
2022-11-09T03:22:18.086Z,9.02
2022-11-09T03:24:53.868Z,9.01
2022-11-09T03:31:56.033Z,8.99
2022-11-09T03:34:29.005Z,8.99
2022-11-09T03:37:08.121Z,8.98
2022-11-09T03:39:40.651Z,8.98
2022-11-09T03:42:19.051Z,8.96
2022-11-09T03:44:51.414Z,8.96
2022-11-09T03:47:29.988Z,8.95
2022-11-09T03:50:02.626Z,8.92
2022-11-09T03:52:41.033Z,8.91
2022-11-09T03:55:14.133Z,8.90
2022-11-09T03:57:53.070Z,8.88
2022-11-09T04:00:27.799Z,8.83
2022-11-09T04:04:00.312Z,8.75
2022-11-09T04:12:30.875Z,8.59
2022-11-09T04:15:06.071Z,8.58
2022-11-09T04:17:38.657Z,8.59
2022-11-09T04:20:12.535Z,8.61
2022-11-09T04:22:44.901Z,8.61
2022-11-09T04:25:17.709Z,8.61
2022-11-09T04:27:50.035Z,8.62
2022-11-09T04:30:22.475Z,8.61
2022-11-09T04:32:55.022Z,8.61
2022-11-09T04:35:29.144Z,8.61
2022-11-09T04:38:04.966Z,8.59
2022-11-09T04:40:40.929Z,8.60
2022-11-09T04:43:16.124Z,8.56
2022-11-09T04:45:48.410Z,8.54
2022-11-09T04:48:20.674Z,8.53
2022-11-09T04:50:52.979Z,8.51
2022-11-09T04:53:25.609Z,8.49
2022-11-09T04:55:58.927Z,8.48
2022-11-09T04:58:31.198Z,8.46
2022-11-09T05:01:07.515Z,8.44
2022-11-09T05:03:40.232Z,8.43
2022-11-09T05:06:33.597Z,8.42
2022-11-09T05:09:08.644Z,8.42
2022-11-09T05:11:41.263Z,8.43
2022-11-09T05:14:13.560Z,8.43
2022-11-09T05:16:45.779Z,8.45
2022-11-09T05:19:17.943Z,8.43
2022-11-09T05:21:50.085Z,8.40
2022-11-09T05:24:22.241Z,8.39
2022-11-09T05:26:54.938Z,8.39
2022-11-09T05:29:27.349Z,8.39
2022-11-09T05:32:00.836Z,8.39
2022-11-09T05:34:34.019Z,8.41
2022-11-09T05:37:09.132Z,8.42
2022-11-09T05:39:41.293Z,8.43
2022-11-09T05:42:14.048Z,8.45
2022-11-09T05:44:46.283Z,8.47
2022-11-09T05:47:19.567Z,8.48
2022-11-09T05:49:51.752Z,8.49
2022-11-09T05:52:24.198Z,8.50
2022-11-09T05:54:57.676Z,8.50
2022-11-09T05:57:30.600Z,8.50
2022-11-09T06:00:06.186Z,8.51
2022-11-09T06:02:46.011Z,8.52
2022-11-09T06:05:20.227Z,8.51
2022-11-09T06:07:52.806Z,8.52
2022-11-09T06:10:25.057Z,8.54
2022-11-09T06:12:59.388Z,8.54
2022-11-09T06:15:31.660Z,8.57
2022-11-09T06:18:06.730Z,8.59
2022-11-09T06:20:39.429Z,8.62
2022-11-09T06:23:12.543Z,8.65
2022-11-09T06:25:44.752Z,8.68
2022-11-09T06:28:17.008Z,8.69
2022-11-09T06:30:49.382Z,8.70
2022-11-09T06:33:21.930Z,8.71
2022-11-09T06:35:56.534Z,8.73
2022-11-09T06:38:29.180Z,8.77
2022-11-09T06:41:02.089Z,8.82
2022-11-09T06:44:31.833Z,8.87
2022-11-09T06:47:10.250Z,8.95
2022-11-09T06:54:32.754Z,9.25
2022-11-09T06:58:00.140Z,9.36
2022-11-09T07:00:39.574Z,9.47
2022-11-09T07:03:16.973Z,9.52
2022-11-09T07:06:44.699Z,9.57
2022-11-09T07:09:17.482Z,9.65
2022-11-09T07:11:56.239Z,9.74
2022-11-09T07:15:15.551Z,9.81
2022-11-09T07:17:48.456Z,9.92
2022-11-09T07:20:20.835Z,10.01
2022-11-09T07:22:59.412Z,10.07
2022-11-09T07:25:32.280Z,10.17
2022-11-09T07:28:13.112Z,10.30
2022-11-09T07:30:45.414Z,10.46
2022-11-09T07:33:25.393Z,10.61
2022-11-09T07:35:58.418Z,10.71
2022-11-09T07:38:37.232Z,10.83
2022-11-09T07:46:10.830Z,11.60
2022-11-09T07:49:27.260Z,11.89
2022-11-09T07:51:59.546Z,12.10
2022-11-09T07:54:31.715Z,12.18
2022-11-09T07:57:03.965Z,12.20
2022-11-09T07:59:36.369Z,12.23
2022-11-09T08:02:10.997Z,12.25
2022-11-09T08:04:43.418Z,12.21
2022-11-09T08:07:15.716Z,12.15
2022-11-09T08:09:47.970Z,12.14
2022-11-09T08:12:20.196Z,12.15
2022-11-09T08:14:52.384Z,12.13
2022-11-09T08:17:25.756Z,12.08
2022-11-09T08:19:58.696Z,12.06
2022-11-09T08:22:30.987Z,12.09
2022-11-09T08:25:03.950Z,12.13
2022-11-09T08:31:14.313Z,12.23
2022-11-09T08:33:47.537Z,12.27
2022-11-09T08:36:20.764Z,12.34
2022-11-09T08:38:55.005Z,12.40
2022-11-09T08:41:27.151Z,12.42
2022-11-09T08:43:59.417Z,12.43
2022-11-09T08:46:31.760Z,12.44
2022-11-09T08:49:04.443Z,12.47
2022-11-09T08:51:36.574Z,12.58
2022-11-09T08:54:11.269Z,12.77
2022-11-09T08:56:43.722Z,12.94
2022-11-09T08:59:15.980Z,13.13
2022-11-09T09:01:48.350Z,13.31
2022-11-09T09:04:20.728Z,13.47
2022-11-09T09:06:53.329Z,13.60
2022-11-09T09:09:25.710Z,13.82
2022-11-09T09:12:01.012Z,14.05
2022-11-09T09:15:32.838Z,14.12
2022-11-09T09:18:06.022Z,14.14
2022-11-09T09:20:38.324Z,14.34
2022-11-09T09:23:12.718Z,14.86
2022-11-09T09:25:45.136Z,15.53
2022-11-09T09:28:17.807Z,15.75
2022-11-09T09:30:50.245Z,15.62
2022-11-09T09:33:22.879Z,15.43
2022-11-09T09:35:56.013Z,15.51
2022-11-09T09:38:29.758Z,15.65
2022-11-09T09:41:03.571Z,15.74
2022-11-09T09:43:43.689Z,15.92
2022-11-09T09:46:17.396Z,15.99
2022-11-09T09:48:52.775Z,15.92
2022-11-09T09:51:30.826Z,15.99
2022-11-09T09:54:09.310Z,16.34
2022-11-09T09:56:44.957Z,16.85
2022-11-09T10:20:42.979Z,20.42
2022-11-09T10:23:53.712Z,20.43
2022-11-09T10:26:32.681Z,20.47
2022-11-09T10:29:18.258Z,20.31
2022-11-09T10:31:52.353Z,20.41
2022-11-09T10:34:31.238Z,20.55
2022-11-09T10:49:45.964Z,22.45
2022-11-09T11:07:28.065Z,20.04
2022-11-09T11:11:44.631Z,19.16
2022-11-09T11:20:45.946Z,17.70
2022-11-09T11:29:48.005Z,17.41
2022-11-09T11:34:45.694Z,17.67
2022-11-09T11:38:50.793Z,18.54
2022-11-09T11:42:54.276Z,18.77
2022-11-09T12:00:06.397Z,18.87
2022-11-09T12:08:31.752Z,18.62
2022-11-09T12:12:46.590Z,18.56
2022-11-09T12:17:12.114Z,18.21
2022-11-09T12:25:37.406Z,17.12
2022-11-09T12:29:38.296Z,16.77
2022-11-09T12:41:35.364Z,16.07
2022-11-09T12:45:49.648Z,15.91
2022-11-09T12:50:11.608Z,15.83
2022-11-09T12:53:11.013Z,15.78
2022-11-09T13:00:58.004Z,15.69
2022-11-09T13:05:26.458Z,15.73
2022-11-09T13:13:30.989Z,15.60
2022-11-09T13:21:39.325Z,15.64
2022-11-09T13:38:23.027Z,15.82
2022-11-09T13:42:22.410Z,15.84
2022-11-09T14:07:12.807Z,15.03
2022-11-09T14:10:46.597Z,14.90
2022-11-09T14:36:45.994Z,14.12
2022-11-09T14:41:12.254Z,13.97
2022-11-09T14:52:42.984Z,13.43
2022-11-09T14:56:00.900Z,13.30
2022-11-09T14:59:51.440Z,13.17
2022-11-09T15:03:22.294Z,13.06
2022-11-09T15:07:28.077Z,12.98
2022-11-09T15:11:29.609Z,12.82
2022-11-09T15:33:40.342Z,12.17
2022-11-09T15:41:21.527Z,11.98
2022-11-09T15:45:29.906Z,11.89
2022-11-09T15:52:54.509Z,11.73
2022-11-09T16:00:39.008Z,11.60
2022-11-09T16:05:05.524Z,11.52
2022-11-09T16:07:59.044Z,11.42
2022-11-09T16:11:14.118Z,11.33
2022-11-09T16:19:03.063Z,11.16
2022-11-09T16:22:18.974Z,11.10
2022-11-09T16:25:41.147Z,11.07
2022-11-09T16:28:57.212Z,11.02
2022-11-09T16:32:13.097Z,10.97
2022-11-09T16:40:06.838Z,10.82
2022-11-09T16:43:28.365Z,10.78
2022-11-09T16:46:44.936Z,10.74
2022-11-09T16:49:42.276Z,10.73
2022-11-09T16:52:34.279Z,10.71
2022-11-09T16:55:24.915Z,10.67
2022-11-09T16:58:15.824Z,10.65
2022-11-09T17:01:12.687Z,10.63
2022-11-09T17:04:04.929Z,10.60
2022-11-09T17:06:59.195Z,10.58
2022-11-09T17:09:50.477Z,10.56
2022-11-09T17:12:41.621Z,10.53
2022-11-09T17:15:32.746Z,10.49
2022-11-09T17:18:23.975Z,10.46
2022-11-09T17:21:16.008Z,10.42
2022-11-09T17:24:07.902Z,10.36
2022-11-09T17:26:58.780Z,10.33
2022-11-09T17:29:49.858Z,10.30
2022-11-09T17:32:40.997Z,10.27
2022-11-09T17:35:36.594Z,10.26
2022-11-09T17:38:30.677Z,10.24
2022-11-09T17:41:23.030Z,10.20
2022-11-09T17:44:51.128Z,10.15
2022-11-09T17:52:42.114Z,10.03
2022-11-09T17:55:57.359Z,10.00
2022-11-09T17:59:20.117Z,9.98
2022-11-09T18:02:37.753Z,9.94
2022-11-09T18:07:03.560Z,9.90
2022-11-09T18:10:25.986Z,9.84
2022-11-09T18:13:42.314Z,9.78
2022-11-09T18:21:51.042Z,9.72
2022-11-09T18:29:42.332Z,9.63
2022-11-09T18:42:22.602Z,9.49
2022-11-09T18:45:39.321Z,9.48
2022-11-09T18:49:02.176Z,9.46
2022-11-09T18:52:17.214Z,9.43
2022-11-09T19:00:26.629Z,9.41
2022-11-09T19:08:17.353Z,9.37
2022-11-09T19:16:26.646Z,9.35
2022-11-09T19:19:49.264Z,9.34
2022-11-09T19:23:04.592Z,9.31
2022-11-09T19:26:29.339Z,9.31
2022-11-09T19:29:44.257Z,9.31
2022-11-09T19:41:54.579Z,9.28
2022-11-09T19:45:12.856Z,9.25
2022-11-09T20:11:34.058Z,9.20
2022-11-09T20:15:56.604Z,9.17
2022-11-09T20:23:43.378Z,9.18
2022-11-09T20:27:04.526Z,9.18
2022-11-09T20:30:20.220Z,9.18
2022-11-09T20:33:36.606Z,9.17
2022-11-09T20:36:59.707Z,9.15
2022-11-09T20:40:15.606Z,9.14
2022-11-09T20:43:19.002Z,9.14
2022-11-09T20:46:36.592Z,9.13
2022-11-09T20:49:34.840Z,9.11
2022-11-09T20:57:44.335Z,9.09
2022-11-09T21:05:35.347Z,9.06
2022-11-09T21:08:53.281Z,9.05
2022-11-09T21:33:42.768Z,8.90
2022-11-09T21:36:58.967Z,8.84
2022-11-09T21:40:21.436Z,8.82
2022-11-09T21:43:12.486Z,8.81
2022-11-09T21:51:21.394Z,8.74
2022-11-09T21:54:36.487Z,8.72
2022-11-09T22:02:21.455Z,8.63
2022-11-09T22:10:12.860Z,8.59
2022-11-09T22:17:57.502Z,8.57
2022-11-09T22:22:00.087Z,8.53
2022-11-09T23:01:10.221Z,8.29
2022-11-09T23:05:13.134Z,8.29
2022-11-09T23:23:23.193Z,8.20
2022-11-09T23:26:38.567Z,8.19
2022-11-09T23:30:00.470Z,8.19
2022-11-09T23:55:31.738Z,8.30
2022-11-09T23:58:23.191Z,8.32
